CONNECT WITH FLYNQY PILOT TRAINING

Newquay Five Day Forecast

This Weather Widget is provided by the Met Office

EGHQ TAF and METAR

METAR

EGHQ 020950Z 14017KT 9999 SCT015 16/13 Q1014

TAF

TAF EGHQ 020801Z 0209/0218 15013KT 9999 FEW030 PROB30 TEMPO 0209/0215 16016G26KT